createdAt,value
2023-05-10T00:03:43.004Z,4.90
2023-05-10T00:08:48.383Z,3.20
2023-05-10T00:18:54.910Z,1.60
2023-05-10T00:24:00.181Z,3.00
2023-05-10T00:29:03.807Z,3.78
2023-05-10T00:34:07.444Z,3.17
2023-05-10T00:39:12.666Z,3.03
2023-05-10T00:44:16.259Z,1.95
2023-05-10T00:49:20.740Z,2.58
2023-05-10T00:54:26.446Z,3.50
2023-05-10T00:59:31.651Z,2.90
2023-05-10T01:04:36.706Z,3.05
2023-05-10T01:09:42.913Z,3.30
2023-05-10T01:14:46.922Z,2.55
2023-05-10T01:19:51.091Z,1.63
2023-05-10T01:25:21.674Z,5.03
2023-05-10T01:30:53.329Z,2.50
2023-05-10T01:36:05.239Z,1.63
2023-05-10T01:41:19.087Z,1.50
2023-05-10T01:46:30.498Z,2.35
2023-05-10T01:51:41.808Z,3.17
2023-05-10T01:56:47.151Z,3.38
2023-05-10T02:01:52.977Z,1.20
2023-05-10T02:06:59.355Z,2.60
2023-05-10T02:12:05.776Z,0.88
2023-05-10T02:17:10.632Z,2.47
2023-05-10T02:22:19.925Z,1.07
2023-05-10T02:27:25.080Z,3.90
2023-05-10T02:32:30.808Z,1.48
2023-05-10T02:37:37.565Z,1.92
2023-05-10T02:42:44.113Z,3.08
2023-05-10T02:47:47.764Z,1.48
2023-05-10T02:52:56.059Z,2.35
2023-05-10T02:58:01.806Z,2.63
2023-05-10T03:08:10.234Z,2.88
2023-05-10T03:13:27.931Z,3.70
2023-05-10T03:18:38.772Z,3.83
2023-05-10T03:23:47.831Z,2.25
2023-05-10T03:28:53.198Z,4.15
2023-05-10T03:33:56.844Z,4.82
2023-05-10T03:39:02.174Z,4.60
2023-05-10T03:44:06.118Z,3.10
2023-05-10T03:49:09.757Z,3.83
2023-05-10T03:54:15.477Z,5.07
2023-05-10T03:59:19.080Z,3.05
2023-05-10T04:04:22.704Z,4.95
2023-05-10T04:09:27.936Z,3.78
2023-05-10T04:14:31.545Z,2.23
2023-05-10T04:19:35.286Z,3.80
2023-05-10T04:24:41.523Z,4.70
2023-05-10T04:29:45.142Z,3.80
2023-05-10T04:34:48.744Z,4.20
2023-05-10T04:39:54.017Z,3.38
2023-05-10T04:44:58.328Z,2.63
2023-05-10T04:50:02.064Z,2.78
2023-05-10T04:55:08.011Z,2.95
2023-05-10T05:05:15.465Z,3.85
2023-05-10T05:10:21.609Z,3.95
2023-05-10T05:15:25.256Z,2.75
2023-05-10T05:20:28.827Z,2.60
2023-05-10T05:25:35.103Z,1.85
2023-05-10T05:30:38.727Z,1.13
2023-05-10T05:35:42.337Z,3.42
2023-05-10T05:40:47.579Z,2.72
2023-05-10T05:45:51.188Z,4.13
2023-05-10T05:50:57.169Z,2.42
2023-05-10T06:01:05.262Z,5.97
2023-05-10T06:06:09.446Z,2.35
2023-05-10T06:11:14.746Z,5.10
2023-05-10T06:16:18.398Z,4.57
2023-05-10T06:21:22.078Z,5.25
2023-05-10T06:26:28.318Z,4.07
2023-05-10T06:31:31.934Z,2.55
2023-05-10T06:36:35.532Z,2.55
2023-05-10T06:41:40.794Z,4.95
2023-05-10T06:46:44.538Z,4.23
2023-05-10T06:51:48.312Z,3.03
2023-05-10T06:56:53.598Z,4.82
2023-05-10T07:01:57.251Z,5.17
2023-05-10T07:07:00.848Z,5.80
2023-05-10T07:12:07.871Z,5.07
2023-05-10T07:17:12.555Z,6.80
2023-05-10T07:22:16.633Z,5.72
2023-05-10T07:27:21.890Z,4.43
2023-05-10T07:32:25.696Z,7.13
2023-05-10T07:37:29.415Z,4.78
2023-05-10T07:42:34.688Z,5.78
2023-05-10T07:47:38.321Z,7.20
2023-05-10T07:52:41.963Z,3.55
2023-05-10T07:57:47.338Z,9.35
2023-05-10T08:02:51.101Z,5.93
2023-05-10T08:07:54.764Z,6.22
2023-05-10T08:13:00.031Z,6.47
2023-05-10T08:18:03.657Z,5.63
2023-05-10T08:23:07.359Z,4.75
2023-05-10T08:28:12.588Z,4.50
2023-05-10T08:33:16.281Z,3.83
2023-05-10T08:38:20.294Z,6.55
2023-05-10T08:43:29.208Z,5.13
2023-05-10T08:48:35.014Z,8.20
2023-05-10T08:53:39.154Z,5.65
2023-05-10T08:58:44.660Z,5.00
2023-05-10T09:03:49.473Z,5.70
2023-05-10T09:08:53.853Z,6.22
2023-05-10T09:13:59.196Z,6.75
2023-05-10T09:19:02.853Z,8.50
2023-05-10T09:24:07.255Z,5.32
2023-05-10T09:29:13.762Z,10.07
2023-05-10T09:34:19.604Z,6.75
2023-05-10T09:39:31.461Z,4.05
2023-05-10T09:44:37.373Z,3.85
2023-05-10T09:49:41.000Z,5.68
2023-05-10T09:54:54.181Z,6.40
2023-05-10T10:00:02.035Z,6.75
2023-05-10T10:05:08.177Z,4.90
2023-05-10T10:10:12.226Z,10.07
2023-05-10T10:15:18.489Z,8.15
2023-05-10T10:20:24.093Z,7.68
2023-05-10T10:25:27.869Z,6.70
2023-05-10T10:30:41.390Z,9.80
2023-05-10T10:35:47.010Z,9.57
2023-05-10T10:41:03.316Z,8.45
2023-05-10T10:46:16.397Z,6.65
2023-05-10T10:51:20.141Z,9.65
2023-05-10T10:56:24.698Z,8.70
2023-05-10T11:01:35.875Z,7.68
2023-05-10T11:06:39.622Z,9.50
2023-05-10T11:12:00.412Z,8.77
2023-05-10T11:17:25.417Z,8.30
2023-05-10T11:22:29.132Z,8.05
2023-05-10T11:27:32.804Z,6.40
2023-05-10T11:32:39.563Z,8.43
2023-05-10T11:37:44.038Z,9.88
2023-05-10T11:42:47.961Z,7.43
2023-05-10T11:47:53.383Z,8.32
2023-05-10T11:52:58.190Z,8.30
2023-05-10T11:58:04.205Z,6.65
2023-05-10T12:03:09.830Z,8.70
2023-05-10T12:08:14.204Z,11.52
2023-05-10T12:13:18.539Z,6.38
2023-05-10T12:18:25.905Z,5.20
2023-05-10T12:23:29.533Z,6.53
2023-05-10T12:28:34.022Z,6.78
2023-05-10T12:33:44.296Z,7.43
2023-05-10T12:38:48.136Z,8.55
2023-05-10T12:43:53.039Z,5.53
2023-05-10T12:49:07.808Z,8.30
2023-05-10T12:54:12.881Z,5.82
2023-05-10T12:59:16.468Z,6.18
2023-05-10T13:04:21.747Z,6.38
2023-05-10T13:09:25.430Z,6.67
2023-05-10T13:14:29.136Z,4.65
2023-05-10T13:19:34.336Z,7.43
2023-05-10T13:24:37.955Z,8.38
2023-05-10T13:29:42.536Z,3.78
2023-05-10T13:34:49.669Z,9.30
2023-05-10T13:39:53.297Z,6.67
2023-05-10T13:44:56.892Z,6.65
2023-05-10T13:50:02.187Z,5.57
2023-05-10T13:55:06.503Z,6.37
2023-05-10T14:00:11.130Z,4.93
2023-05-10T14:05:17.140Z,5.88
2023-05-10T14:10:22.395Z,6.85
2023-05-10T14:15:26.111Z,5.15
2023-05-10T14:20:31.394Z,5.72
2023-05-10T14:25:35.186Z,6.43
2023-05-10T14:30:38.795Z,5.93
2023-05-10T14:35:44.124Z,4.45
2023-05-10T14:40:47.741Z,7.93
2023-05-10T14:45:51.363Z,4.93
2023-05-10T14:50:56.586Z,6.07
2023-05-10T14:56:00.206Z,3.60
2023-05-10T15:01:03.823Z,4.07
2023-05-10T15:06:10.505Z,7.18
2023-05-10T15:11:14.205Z,6.03
2023-05-10T15:16:17.851Z,5.90
2023-05-10T15:21:25.293Z,4.05
2023-05-10T15:26:28.916Z,7.57
2023-05-10T15:31:32.577Z,8.25
2023-05-10T15:36:37.867Z,4.00
2023-05-10T15:41:41.534Z,5.90
2023-05-10T15:46:45.155Z,4.18
2023-05-10T15:51:50.479Z,6.65
2023-05-10T15:56:54.752Z,5.23
2023-05-10T16:01:58.841Z,7.57
2023-05-10T16:07:04.180Z,5.13
2023-05-10T16:12:08.823Z,5.17
2023-05-10T16:17:12.537Z,10.38
2023-05-10T16:22:17.877Z,8.27
2023-05-10T16:27:21.524Z,5.63
2023-05-10T16:32:25.192Z,4.55
2023-05-10T16:37:30.468Z,8.43
2023-05-10T16:42:34.097Z,6.50
2023-05-10T16:47:39.002Z,6.88
2023-05-10T16:52:44.344Z,3.70
2023-05-10T16:57:47.993Z,6.90
2023-05-10T17:02:51.668Z,10.20
2023-05-10T17:07:57.043Z,5.20
2023-05-10T17:13:00.669Z,7.50
2023-05-10T17:18:04.349Z,7.78
2023-05-10T17:23:09.661Z,9.38
2023-05-10T17:28:13.257Z,10.03
2023-05-10T17:33:16.932Z,10.35
2023-05-10T17:38:22.169Z,11.48
2023-05-10T17:43:25.810Z,6.60
2023-05-10T17:48:29.413Z,8.45
2023-05-10T17:53:35.301Z,12.15
2023-05-10T18:03:41.772Z,10.40
2023-05-10T18:08:47.080Z,7.68
2023-05-10T18:13:50.722Z,6.67
2023-05-10T18:18:54.352Z,5.15
2023-05-10T18:23:59.691Z,6.40
2023-05-10T18:29:03.314Z,7.70
2023-05-10T18:34:07.006Z,8.60
2023-05-10T18:39:13.354Z,8.10
2023-05-10T18:44:16.973Z,6.93
2023-05-10T18:49:20.638Z,8.60
2023-05-10T18:54:25.957Z,5.57
2023-05-10T18:59:29.568Z,5.47
2023-05-10T19:04:33.372Z,9.60
2023-05-10T19:09:38.689Z,7.90
2023-05-10T19:14:42.349Z,8.30
2023-05-10T19:19:46.253Z,8.52
2023-05-10T19:24:51.645Z,6.03
2023-05-10T19:29:56.505Z,9.10
2023-05-10T19:35:00.125Z,7.32
2023-05-10T19:40:06.017Z,6.43
2023-05-10T19:45:10.904Z,5.60
2023-05-10T19:50:14.560Z,7.37
2023-05-10T19:55:28.145Z,4.85
2023-05-10T20:00:31.998Z,6.13
2023-05-10T20:05:35.690Z,4.60
2023-05-10T20:10:40.948Z,6.22
2023-05-10T20:15:44.763Z,8.48
2023-05-10T20:20:48.586Z,5.20
2023-05-10T20:25:54.126Z,6.00
2023-05-10T20:30:58.569Z,5.30
2023-05-10T20:36:02.192Z,7.15
2023-05-10T20:41:07.484Z,6.40
2023-05-10T20:46:12.080Z,5.05
2023-05-10T20:51:15.997Z,6.27
2023-05-10T20:56:21.487Z,5.28
2023-05-10T21:06:28.465Z,4.93
2023-05-10T21:11:36.179Z,8.02
2023-05-10T21:16:40.221Z,5.97
2023-05-10T21:21:44.219Z,4.53
2023-05-10T21:26:50.848Z,4.88
2023-05-10T21:31:54.520Z,4.97
2023-05-10T21:36:58.229Z,5.22
2023-05-10T21:42:03.850Z,3.80
2023-05-10T21:47:07.638Z,4.32
2023-05-10T21:52:11.265Z,4.70
2023-05-10T21:57:16.572Z,3.72
2023-05-10T22:02:20.218Z,4.50
2023-05-10T22:07:23.889Z,5.25
2023-05-10T22:12:29.218Z,5.90
2023-05-10T22:17:32.889Z,4.68
2023-05-10T22:22:36.575Z,5.97
2023-05-10T22:27:41.931Z,4.75
2023-05-10T22:32:45.657Z,5.07
2023-05-10T22:37:49.290Z,3.92
2023-05-10T22:42:54.528Z,5.63
2023-05-10T22:47:58.149Z,3.80
2023-05-10T22:53:01.787Z,4.22
2023-05-10T22:58:07.536Z,5.70
2023-05-10T23:03:11.190Z,4.85
2023-05-10T23:08:15.570Z,5.50
2023-05-10T23:13:21.757Z,5.10
2023-05-10T23:18:25.361Z,8.98
2023-05-10T23:23:29.031Z,5.65
2023-05-10T23:28:34.325Z,4.93
2023-05-10T23:33:37.923Z,5.22
2023-05-10T23:38:41.533Z,7.95
2023-05-10T23:43:46.743Z,5.28
2023-05-10T23:48:50.381Z,5.63
2023-05-10T23:53:54.001Z,7.07
2023-05-10T23:58:59.237Z,5.72
